createdAt,value
2023-05-23T00:03:44.017Z,50.21
2023-05-23T00:08:46.928Z,47.47
2023-05-23T00:13:51.662Z,47.51
2023-05-23T00:18:58.088Z,48.87
2023-05-23T00:24:03.008Z,49.17
2023-05-23T00:29:05.822Z,48.65
2023-05-23T00:34:08.632Z,48.46
2023-05-23T00:39:20.330Z,48.06
2023-05-23T00:44:24.216Z,48.35
2023-05-23T00:49:28.556Z,49.10
2023-05-23T00:54:31.995Z,48.80
2023-05-23T00:59:37.628Z,48.71
2023-05-23T01:04:40.836Z,48.93
2023-05-23T01:09:43.736Z,48.42
2023-05-23T01:14:56.958Z,48.06
2023-05-23T01:20:05.309Z,47.49
2023-05-23T01:25:42.795Z,46.55
2023-05-23T01:30:46.976Z,45.82
2023-05-23T01:35:50.367Z,44.99
2023-05-23T01:40:54.522Z,43.57
2023-05-23T01:45:58.423Z,42.43
2023-05-23T01:51:03.010Z,41.50
2023-05-23T01:56:05.986Z,41.84
2023-05-23T02:01:10.275Z,41.83
2023-05-23T02:06:13.481Z,41.80
2023-05-23T02:11:16.439Z,42.25
2023-05-23T02:16:19.467Z,42.04
2023-05-23T02:21:24.275Z,42.05
2023-05-23T02:26:28.001Z,41.74
2023-05-23T02:31:31.996Z,41.37
2023-05-23T02:36:37.482Z,40.75
2023-05-23T02:41:40.590Z,40.40
2023-05-23T02:46:43.641Z,40.24
2023-05-23T02:51:46.892Z,39.87
2023-05-23T02:56:52.708Z,39.13
2023-05-23T03:01:55.984Z,38.21
2023-05-23T03:07:00.067Z,37.91
2023-05-23T03:12:03.072Z,37.58
2023-05-23T03:17:06.239Z,36.76
2023-05-23T03:22:09.141Z,36.56
2023-05-23T03:27:12.121Z,35.84
2023-05-23T03:32:15.346Z,35.07
2023-05-23T03:37:18.396Z,34.78
2023-05-23T03:42:21.361Z,34.28
2023-05-23T03:47:27.688Z,33.69
2023-05-23T03:52:33.103Z,31.46
2023-05-23T03:57:36.656Z,30.50
2023-05-23T04:02:42.428Z,29.36
2023-05-23T04:07:46.728Z,29.53
2023-05-23T04:12:52.416Z,30.26
2023-05-23T04:17:56.758Z,30.63
2023-05-23T04:23:00.748Z,30.85
2023-05-23T04:28:06.895Z,30.82
2023-05-23T04:33:10.599Z,30.25
2023-05-23T04:38:13.989Z,29.89
2023-05-23T04:43:17.372Z,29.37
2023-05-23T04:48:31.835Z,28.53
2023-05-23T04:53:37.416Z,28.97
2023-05-23T04:58:44.779Z,28.90
2023-05-23T05:03:49.794Z,28.92
2023-05-23T05:08:52.928Z,29.08
2023-05-23T05:13:57.246Z,29.42
2023-05-23T05:19:00.495Z,29.47
2023-05-23T05:24:03.566Z,29.12
2023-05-23T05:29:06.835Z,29.36
2023-05-23T05:34:12.189Z,28.91
2023-05-23T05:39:15.966Z,29.31
2023-05-23T05:44:19.036Z,28.73
2023-05-23T05:49:23.027Z,29.10
2023-05-23T05:54:26.174Z,29.08
2023-05-23T05:59:31.847Z,29.19
2023-05-23T06:04:35.687Z,29.38
2023-05-23T06:09:39.666Z,29.41
2023-05-23T06:14:43.776Z,29.18
2023-05-23T06:19:47.011Z,28.64
2023-05-23T06:24:51.437Z,28.66
2023-05-23T06:29:55.637Z,28.80
2023-05-23T06:34:58.663Z,28.80
2023-05-23T06:40:02.731Z,28.76
2023-05-23T06:45:08.205Z,28.56
2023-05-23T06:50:11.756Z,28.01
2023-05-23T06:55:18.766Z,27.89
2023-05-23T07:00:23.757Z,28.04
2023-05-23T07:05:41.702Z,28.15
2023-05-23T07:10:46.467Z,28.39
2023-05-23T07:16:01.811Z,27.89
2023-05-23T07:21:06.966Z,27.99
2023-05-23T07:26:10.251Z,28.49
2023-05-23T07:31:22.219Z,29.16
2023-05-23T07:36:28.133Z,29.16
2023-05-23T07:41:31.424Z,29.29
2023-05-23T07:46:34.480Z,29.54
2023-05-23T07:51:38.124Z,29.18
2023-05-23T07:56:43.174Z,29.20
2023-05-23T08:01:46.699Z,30.14
2023-05-23T08:12:06.389Z,29.89
2023-05-23T08:17:11.906Z,29.59
2023-05-23T08:22:15.169Z,29.63
2023-05-23T08:27:18.148Z,29.41
2023-05-23T08:32:24.325Z,29.91
2023-05-23T08:37:27.710Z,29.68
2023-05-23T08:42:31.042Z,29.83
2023-05-23T08:47:35.012Z,29.27
2023-05-23T08:52:45.510Z,29.40
2023-05-23T08:57:48.766Z,28.97
2023-05-23T09:03:07.772Z,28.97
2023-05-23T09:08:26.655Z,28.50
2023-05-23T09:13:34.908Z,28.61
2023-05-23T09:18:42.925Z,29.01
2023-05-23T09:23:49.688Z,28.92
2023-05-23T09:28:58.134Z,28.92
2023-05-23T09:34:01.624Z,29.00
2023-05-23T09:39:06.116Z,28.83
2023-05-23T09:44:10.032Z,28.95
2023-05-23T09:49:19.342Z,29.50
2023-05-23T09:54:23.428Z,28.93
2023-05-23T09:59:29.405Z,28.41
2023-05-23T10:04:35.100Z,28.77
2023-05-23T10:09:40.470Z,29.12
2023-05-23T10:14:46.078Z,29.20
2023-05-23T10:20:03.755Z,29.17
2023-05-23T10:25:10.995Z,29.42
2023-05-23T10:30:14.394Z,29.24
2023-05-23T10:35:43.930Z,29.31
2023-05-23T10:41:14.586Z,29.09
2023-05-23T10:46:22.099Z,29.35
2023-05-23T10:51:25.420Z,29.32
2023-05-23T10:56:32.353Z,29.28
2023-05-23T11:01:40.074Z,29.33
2023-05-23T11:06:45.117Z,30.04
2023-05-23T11:12:08.555Z,30.02
2023-05-23T11:17:14.374Z,30.06
2023-05-23T11:22:18.383Z,30.03
2023-05-23T11:27:28.821Z,29.96
2023-05-23T11:32:32.342Z,30.22
2023-05-23T11:37:35.977Z,30.34
2023-05-23T11:42:45.069Z,30.60
2023-05-23T11:47:47.995Z,30.81
2023-05-23T11:52:52.328Z,30.65
2023-05-23T11:57:57.037Z,30.90
2023-05-23T12:03:07.688Z,31.07
2023-05-23T12:08:13.196Z,31.11
2023-05-23T12:13:16.193Z,31.01
2023-05-23T12:18:20.717Z,31.10
2023-05-23T12:23:24.657Z,30.60
2023-05-23T12:28:38.419Z,29.66
2023-05-23T12:33:45.638Z,30.30
2023-05-23T12:38:48.753Z,30.99
2023-05-23T12:43:53.211Z,31.36
2023-05-23T12:48:56.450Z,31.78
2023-05-23T12:53:59.596Z,31.61
2023-05-23T12:59:04.000Z,29.47
2023-05-23T13:04:07.069Z,28.09
2023-05-23T13:09:10.690Z,27.81
2023-05-23T13:14:14.494Z,27.92
2023-05-23T13:19:17.870Z,27.76
2023-05-23T13:24:21.239Z,27.66
2023-05-23T13:29:24.315Z,27.91
2023-05-23T13:34:28.838Z,28.07
2023-05-23T13:39:32.098Z,28.22
2023-05-23T13:44:35.076Z,28.70
2023-05-23T13:49:38.080Z,28.86
2023-05-23T13:54:42.066Z,29.14
2023-05-23T13:59:45.073Z,29.13
2023-05-23T14:04:49.504Z,28.83
2023-05-23T14:09:52.471Z,29.19
2023-05-23T14:14:55.522Z,30.58
2023-05-23T14:19:59.327Z,32.62
2023-05-23T14:25:02.294Z,34.65
2023-05-23T14:30:07.252Z,36.25
2023-05-23T14:35:11.806Z,37.15
2023-05-23T14:40:16.643Z,38.58
2023-05-23T14:45:20.109Z,39.56
2023-05-23T14:50:23.333Z,40.41
2023-05-23T14:55:26.654Z,40.96
2023-05-23T15:00:29.574Z,41.83
2023-05-23T15:05:32.675Z,42.60
2023-05-23T15:10:36.001Z,42.81
2023-05-23T15:15:39.307Z,43.74
2023-05-23T15:20:43.044Z,43.95
2023-05-23T15:25:49.982Z,44.47
2023-05-23T15:30:54.112Z,44.81
2023-05-23T15:35:59.266Z,45.09
2023-05-23T15:41:02.920Z,45.36
2023-05-23T15:46:06.040Z,45.41
2023-05-23T15:51:09.197Z,45.82
2023-05-23T15:56:12.218Z,45.82
2023-05-23T16:01:15.339Z,45.97
2023-05-23T16:06:19.673Z,46.08
2023-05-23T16:11:23.290Z,46.34
2023-05-23T16:16:26.300Z,46.57
2023-05-23T16:21:29.369Z,46.42
2023-05-23T16:26:32.336Z,46.63
2023-05-23T16:31:36.081Z,47.01
2023-05-23T16:36:39.077Z,47.32
2023-05-23T16:41:42.161Z,47.16
2023-05-23T16:46:45.384Z,47.63
2023-05-23T16:51:48.914Z,47.71
2023-05-23T16:56:51.820Z,47.47
2023-05-23T17:01:54.878Z,47.93
2023-05-23T17:06:57.953Z,48.04
2023-05-23T17:12:00.969Z,47.87
2023-05-23T17:17:05.732Z,48.31
2023-05-23T17:22:08.760Z,48.15
2023-05-23T17:27:11.633Z,48.29
2023-05-23T17:32:14.736Z,48.68
2023-05-23T17:37:17.752Z,48.71
2023-05-23T17:42:21.088Z,48.86
2023-05-23T17:47:24.251Z,49.32
2023-05-23T17:52:29.345Z,49.51
2023-05-23T17:57:32.424Z,49.17
2023-05-23T18:02:35.423Z,50.02
2023-05-23T18:07:38.603Z,50.10
2023-05-23T18:12:41.605Z,50.93
2023-05-23T18:17:44.766Z,51.60
2023-05-23T18:22:53.150Z,52.11
2023-05-23T18:27:58.781Z,51.94
2023-05-23T18:33:01.809Z,51.66
2023-05-23T18:38:04.870Z,51.46
2023-05-23T18:43:07.782Z,51.86
2023-05-23T18:48:11.082Z,52.40
2023-05-23T18:53:14.325Z,52.49
2023-05-23T18:58:17.359Z,51.60
2023-05-23T19:03:20.689Z,51.40
2023-05-23T19:08:23.869Z,51.57
2023-05-23T19:13:27.769Z,52.00
2023-05-23T19:18:30.904Z,52.12
2023-05-23T19:23:34.562Z,52.13
2023-05-23T19:28:37.532Z,52.34
2023-05-23T19:33:40.657Z,53.81
2023-05-23T19:38:43.632Z,54.06
2023-05-23T19:43:46.604Z,54.74
2023-05-23T19:48:49.983Z,55.12
2023-05-23T19:53:54.953Z,55.75
2023-05-23T19:58:58.092Z,55.75
2023-05-23T20:04:01.331Z,55.44
2023-05-23T20:09:04.518Z,55.37
2023-05-23T20:14:07.594Z,55.33
2023-05-23T20:19:10.766Z,55.60
2023-05-23T20:24:15.407Z,55.71
2023-05-23T20:29:18.451Z,55.81
2023-05-23T20:34:21.412Z,55.90
2023-05-23T20:39:24.645Z,55.85
2023-05-23T20:44:28.729Z,55.81
2023-05-23T20:49:31.744Z,56.02
2023-05-23T20:54:35.838Z,56.34
2023-05-23T20:59:38.886Z,55.91
2023-05-23T21:04:41.772Z,55.98
2023-05-23T21:09:44.831Z,55.78
2023-05-23T21:14:47.733Z,55.91
2023-05-23T21:19:50.750Z,56.24
2023-05-23T21:24:53.736Z,56.65
2023-05-23T21:29:57.109Z,56.79
2023-05-23T21:35:00.048Z,56.80
2023-05-23T21:40:03.252Z,56.85
2023-05-23T21:45:08.374Z,57.48
2023-05-23T21:50:11.792Z,57.67
2023-05-23T21:55:14.765Z,57.71
2023-05-23T22:00:19.564Z,57.83
2023-05-23T22:05:22.685Z,58.26
2023-05-23T22:10:25.598Z,58.51
2023-05-23T22:15:28.615Z,58.52
2023-05-23T22:20:31.579Z,58.42
2023-05-23T22:25:35.571Z,59.35
2023-05-23T22:30:38.733Z,59.55
2023-05-23T22:35:42.223Z,60.56
2023-05-23T22:40:45.156Z,60.77
2023-05-23T22:45:50.374Z,61.11
2023-05-23T22:50:57.479Z,61.21
2023-05-23T22:56:00.362Z,61.61
2023-05-23T23:01:03.334Z,61.50
2023-05-23T23:06:06.782Z,62.82
2023-05-23T23:11:09.719Z,63.03
2023-05-23T23:16:13.594Z,63.94
2023-05-23T23:21:16.564Z,63.97
2023-05-23T23:26:19.601Z,63.41
2023-05-23T23:31:22.626Z,62.94
2023-05-23T23:36:25.634Z,63.60
2023-05-23T23:41:28.639Z,63.46
2023-05-23T23:46:31.658Z,63.64
2023-05-23T23:51:34.646Z,63.63
2023-05-23T23:56:37.689Z,63.03
